Time;durP1;ratioP1;P1;durP2;ratioP2;P2;SDS_P1;SDS_P2;PMS_P1;PMS_P2;Temp;Humidity;BMP_temperature;BMP_pressure;BME280_temperature;BME280_humidity;BME280_pressure;Samples;Min_cycle;Max_cycle;Signal;HPM_P1;HPM_P2
2022/09/25 00:02:02;;;;;;;8.27;4.90;;;6.00;99.90;;;5.73;100.00;98965.28;5062200;27;119768;-72
2022/09/25 00:04:31;;;;;;;7.38;4.43;;;6.00;99.90;;;5.73;100.00;98967.97;5030616;27;119057;-71
2022/09/25 00:06:59;;;;;;;6.85;4.38;;;6.10;99.90;;;5.73;100.00;98959.91;5059415;27;130428;-72
2022/09/25 00:09:30;;;;;;;8.85;4.10;;;6.00;99.90;;;5.71;100.00;98964.75;5026378;27;129179;-71
2022/09/25 00:11:58;;;;;;;6.45;4.57;;;6.00;99.90;;;5.69;100.00;98955.41;5040756;27;122662;-72
2022/09/25 00:14:26;;;;;;;6.70;4.18;;;6.00;99.90;;;5.66;100.00;98959.47;5041751;27;121937;-72
2022/09/25 00:16:55;;;;;;;7.05;4.35;;;5.90;99.90;;;5.66;100.00;98955.97;5041513;27;130324;-73
2022/09/25 00:22:10;;;;;;;8.95;4.80;;;5.90;99.90;;;5.61;100.00;98962.25;5058732;27;119618;-77
2022/09/25 00:24:39;;;;;;;6.88;4.35;;;5.80;99.90;;;5.61;100.00;98956.03;5061964;27;119629;-73
2022/09/25 00:27:08;;;;;;;8.45;4.72;;;5.80;99.90;;;5.58;100.00;98957.44;5061719;27;129832;-73
2022/09/25 00:29:38;;;;;;;7.63;5.00;;;5.80;99.90;;;5.57;100.00;98955.81;5062004;27;129730;-73
2022/09/25 00:32:08;;;;;;;7.47;4.60;;;5.80;99.90;;;5.54;100.00;98951.03;5045883;27;119017;-72
2022/09/25 00:34:38;;;;;;;6.88;4.65;;;5.80;99.90;;;5.51;100.00;98962.38;5061994;27;119612;-73
2022/09/25 00:37:07;;;;;;;9.48;5.10;;;5.70;99.90;;;5.47;100.00;98958.66;5060589;27;130655;-72
2022/09/25 00:39:35;;;;;;;8.75;4.97;;;5.60;99.90;;;5.46;100.00;98959.75;5061464;27;129970;-73
2022/09/25 00:42:05;;;;;;;7.25;4.93;;;5.70;99.90;;;5.42;100.00;98958.72;5061643;27;119504;-72
2022/09/25 00:44:57;;;;;;;8.82;5.00;;;5.60;99.90;;;5.36;100.00;98949.91;5061213;27;119239;-74
2022/09/25 00:47:46;;;;;;;7.32;4.65;;;5.60;99.90;;;5.37;100.00;98951.53;5061150;27;130510;-74
2022/09/25 00:50:31;;;;;;;7.90;4.78;;;5.60;99.90;;;5.35;100.00;98954.50;5045290;27;128448;-76
2022/09/25 00:53:05;;;;;;;7.85;4.75;;;5.50;99.90;;;5.33;100.00;98951.31;5061360;27;119433;-74
2022/09/25 00:55:36;;;;;;;8.50;5.00;;;5.50;99.90;;;5.32;100.00;98947.00;5061718;27;120124;-73
2022/09/25 00:58:06;;;;;;;8.02;5.00;;;5.50;99.90;;;5.30;100.00;98951.88;5060966;27;130576;-72
2022/09/25 01:00:35;;;;;;;8.43;4.75;;;5.30;99.90;;;5.29;100.00;98952.19;5060921;27;130273;-73
2022/09/25 01:03:06;;;;;;;6.97;5.00;;;5.30;99.90;;;5.28;100.00;98954.06;5061540;27;122095;-74
2022/09/25 01:05:38;;;;;;;7.40;5.13;;;5.40;99.90;;;5.22;100.00;98945.25;5061122;27;122429;-73
2022/09/25 01:08:11;;;;;;;9.60;5.13;;;5.40;99.90;;;5.24;100.00;98953.03;5059637;27;129676;-73
2022/09/25 01:10:40;;;;;;;7.03;4.82;;;5.40;99.90;;;5.22;100.00;98956.03;5060843;27;129963;-71
2022/09/25 01:13:11;;;;;;;9.05;5.20;;;5.40;99.90;;;5.20;100.00;98946.63;5045845;27;118769;-71
2022/09/25 01:15:48;;;;;;;8.00;5.35;;;5.30;99.90;;;5.12;100.00;98945.38;5060794;27;119407;-72
2022/09/25 01:18:31;;;;;;;9.27;5.22;;;5.30;99.90;;;5.14;100.00;98942.41;5060660;27;129964;-71
2022/09/25 01:21:19;;;;;;;8.68;5.15;;;5.30;99.90;;;5.11;100.00;98934.91;5060907;27;129548;-72
2022/09/25 01:24:40;;;;;;;7.65;5.03;;;5.40;99.90;;;5.02;100.00;98940.94;5045699;27;119613;-71
2022/09/25 01:28:06;;;;;;;7.45;4.82;;;5.40;99.90;;;5.06;100.00;98937.69;5061025;27;119599;-71
2022/09/25 01:30:42;;;;;;;8.60;5.00;;;5.40;99.90;;;5.05;100.00;98939.56;5059301;27;130316;-71
2022/09/25 01:33:18;;;;;;;10.23;5.75;;;5.40;99.90;;;5.06;100.00;98929.59;5062336;27;129102;-70
2022/09/25 01:35:54;;;;;;;8.75;5.32;;;5.40;99.90;;;5.02;100.00;98930.19;5045307;27;119989;-71
2022/09/25 01:38:31;;;;;;;9.70;5.00;;;5.30;99.90;;;5.01;100.00;98933.97;5060582;27;119548;-73
2022/09/25 01:41:11;;;;;;;10.05;5.78;;;5.30;99.90;;;4.94;100.00;98944.28;5060398;27;129846;-73
2022/09/25 01:43:44;;;;;;;9.70;5.53;;;5.30;99.90;;;4.99;100.00;98938.03;5060469;27;129539;-74
2022/09/25 01:46:18;;;;;;;9.77;5.85;;;5.30;99.90;;;5.00;100.00;98932.38;5060767;27;120041;-73
2022/09/25 01:48:53;;;;;;;6.95;4.78;;;5.30;99.90;;;5.00;100.00;98940.44;5060890;27;119411;-75
2022/09/25 01:51:27;;;;;;;8.48;5.53;;;5.20;99.90;;;5.02;100.00;98935.56;5060637;27;130035;-74
2022/09/25 01:54:01;;;;;;;7.95;5.57;;;5.20;99.90;;;5.03;100.00;98937.19;5045182;27;128635;-73
2022/09/25 01:56:34;;;;;;;9.13;5.35;;;5.20;99.90;;;5.03;100.00;98941.72;5058406;27;122372;-71
2022/09/25 01:59:08;;;;;;;9.40;5.80;;;5.30;99.90;;;5.03;100.00;98947.94;5060095;27;122651;-72
2022/09/25 02:01:43;;;;;;;8.77;5.15;;;5.20;99.90;;;5.06;100.00;98940.38;5059991;27;129894;-71
2022/09/25 02:04:17;;;;;;;7.60;5.40;;;5.30;99.90;;;5.02;100.00;98940.94;5041259;27;130183;-72
2022/09/25 02:06:50;;;;;;;9.27;5.20;;;5.30;99.90;;;5.03;100.00;98937.19;5041993;27;119156;-72
2022/09/25 02:09:25;;;;;;;8.13;5.72;;;5.30;99.90;;;5.00;100.00;98932.38;5039983;27;119850;-71
2022/09/25 02:12:01;;;;;;;8.95;5.70;;;5.30;99.90;;;5.04;100.00;98937.97;5039262;27;130181;-70
2022/09/25 02:14:35;;;;;;;7.15;5.18;;;5.30;99.90;;;5.00;100.00;98935.06;5040034;27;129710;-72
2022/09/25 02:17:11;;;;;;;8.30;5.18;;;5.20;99.90;;;4.99;100.00;98935.34;5039706;27;119900;-72
2022/09/25 02:22:34;;;;;;;8.77;5.30;;;5.10;99.90;;;4.95;100.00;98943.16;5038549;27;129933;-73
2022/09/25 02:25:13;;;;;;;9.23;5.75;;;5.10;99.90;;;4.92;100.00;98935.69;5039564;27;129997;-73
2022/09/25 02:27:42;;;;;;;8.77;5.32;;;5.10;99.90;;;4.89;100.00;98938.94;5039631;27;120900;-74
2022/09/25 02:30:12;;;;;;;10.45;5.60;;;5.10;99.90;;;4.86;100.00;98931.44;5039812;27;119160;-73
2022/09/25 02:32:43;;;;;;;8.07;5.40;;;5.10;99.90;;;4.87;100.00;98935.75;5041123;27;129760;-72
2022/09/25 02:35:11;;;;;;;10.07;5.72;;;5.00;99.90;;;4.83;100.00;98932.84;5039351;27;129684;-74
2022/09/25 02:37:40;;;;;;;9.10;5.53;;;5.00;99.90;;;4.85;100.00;98946.00;5039369;27;119588;-73
2022/09/25 02:40:10;;;;;;;7.97;5.50;;;5.10;99.90;;;4.83;100.00;98929.34;5058749;27;118824;-72
2022/09/25 02:42:48;;;;;;;8.32;5.30;;;5.00;99.90;;;4.81;100.00;98931.53;5039201;27;130407;-74
2022/09/25 02:45:35;;;;;;;8.85;5.97;;;5.00;99.90;;;4.76;100.00;98932.38;5038982;27;129648;-73
2022/09/25 02:48:17;;;;;;;8.45;5.45;;;4.90;99.90;;;4.74;100.00;98923.03;5040056;27;122118;-75
2022/09/25 02:51:09;;;;;;;8.90;5.18;;;4.90;99.90;;;4.70;100.00;98924.66;5039337;27;122124;-75
2022/09/25 02:53:41;;;;;;;8.65;5.55;;;4.90;99.90;;;4.74;100.00;98925.72;5039205;27;129887;-73
2022/09/25 02:56:18;;;;;;;9.73;5.97;;;5.00;99.90;;;4.73;100.00;98921.41;5039003;27;129573;-73
2022/09/25 02:58:51;;;;;;;7.90;4.93;;;5.00;99.90;;;4.72;100.00;98922.47;5041380;27;119128;-74
2022/09/25 03:01:25;;;;;;;7.80;5.35;;;5.10;99.90;;;4.73;100.00;98921.41;5039443;27;119399;-74
2022/09/25 03:03:58;;;;;;;12.27;5.70;;;5.00;99.90;;;4.72;100.00;98917.94;5043606;27;130959;-74
2022/09/25 03:06:28;;;;;;;8.23;5.53;;;5.00;99.90;;;4.73;100.00;98921.41;5060189;27;130428;-72
2022/09/25 03:08:58;;;;;;;8.95;5.47;;;5.00;99.90;;;4.73;100.00;98911.44;5063534;27;120381;-73
2022/09/25 03:11:28;;;;;;;9.63;5.28;;;5.00;99.90;;;4.70;100.00;98917.41;5063220;27;119877;-74
2022/09/25 03:13:59;;;;;;;8.35;5.93;;;5.00;99.90;;;4.68;100.00;98912.31;5061490;27;129905;-77
2022/09/25 03:16:34;;;;;;;9.07;6.03;;;4.90;99.90;;;4.64;100.00;98927.41;5062840;27;129870;-74
2022/09/25 03:19:04;;;;;;;7.82;5.30;;;4.90;99.90;;;4.63;100.00;98919.66;5062832;27;119822;-74
2022/09/25 03:21:33;;;;;;;8.88;5.60;;;4.80;99.90;;;4.62;100.00;98926.88;5063323;27;120035;-71
2022/09/25 03:24:02;;;;;;;8.63;5.78;;;4.80;99.90;;;4.60;100.00;98912.94;5062584;27;130296;-73
2022/09/25 03:26:31;;;;;;;9.70;6.40;;;4.90;99.90;;;4.61;100.00;98919.09;5062125;27;129598;-72
2022/09/25 03:29:01;;;;;;;10.13;6.47;;;4.90;99.90;;;4.58;100.00;98915.13;5062833;27;119469;-74
2022/09/25 03:31:30;;;;;;;8.52;6.05;;;4.80;99.90;;;4.58;100.00;98923.19;5063021;27;119739;-75
2022/09/25 03:33:58;;;;;;;8.50;5.43;;;4.70;99.90;;;4.56;100.00;98919.19;5062382;27;129821;-74
2022/09/25 03:36:32;;;;;;;9.27;5.95;;;4.70;99.90;;;4.51;100.00;98920.03;5062297;27;129722;-76
2022/09/25 03:39:02;;;;;;;9.80;6.07;;;4.70;99.90;;;4.50;100.00;98929.16;5061127;27;122290;-73
2022/09/25 03:41:33;;;;;;;11.75;6.60;;;4.70;99.90;;;4.50;100.00;98923.78;5062631;27;121506;-74
2022/09/25 03:44:03;;;;;;;9.38;6.32;;;4.70;99.90;;;4.51;100.00;98928.09;5062454;27;130245;-73
2022/09/25 03:46:34;;;;;;;9.88;6.43;;;4.80;99.90;;;4.51;100.00;98936.16;5061805;27;129698;-75
2022/09/25 03:49:03;;;;;;;9.52;6.47;;;4.70;99.90;;;4.55;100.00;98931.00;5062523;27;119793;-74
2022/09/25 03:51:34;;;;;;;10.48;6.10;;;4.70;99.90;;;4.55;100.00;98931.00;5062280;27;119735;-74
2022/09/25 03:54:03;;;;;;;9.90;6.47;;;4.80;99.90;;;4.52;100.00;98935.06;5062045;27;130733;-74
2022/09/25 03:56:31;;;;;;;9.43;6.50;;;4.70;99.90;;;4.53;100.00;98928.59;5044232;27;129353;-76
2022/09/25 03:59:00;;;;;;;9.93;6.20;;;4.80;99.90;;;4.56;100.00;98928.03;5062076;27;120463;-75
2022/09/25 04:01:29;;;;;;;9.35;5.63;;;4.80;99.90;;;4.55;100.00;98929.13;5062379;27;119563;-73
2022/09/25 04:04:01;;;;;;;11.18;6.30;;;4.70;99.90;;;4.56;100.00;98925.34;5062725;27;130331;-72
2022/09/25 04:06:32;;;;;;;10.82;5.85;;;4.70;99.90;;;4.54;100.00;98919.47;5047073;27;129210;-73
2022/09/25 04:09:00;;;;;;;10.63;6.20;;;4.70;99.90;;;4.54;100.00;98922.16;5044091;27;120005;-77
2022/09/25 04:11:29;;;;;;;11.57;5.72;;;4.70;99.90;;;4.57;100.00;98928.84;5062160;27;119584;-75
2022/09/25 04:13:58;;;;;;;9.02;5.97;;;4.70;99.90;;;4.61;100.00;98919.09;5046591;27;129680;-76
2022/09/25 04:16:28;;;;;;;10.07;5.93;;;4.80;99.90;;;4.64;100.00;98922.03;5061422;27;130060;-75
2022/09/25 04:18:57;;;;;;;8.57;5.25;;;4.80;99.90;;;4.71;100.00;98929.75;5059528;27;119561;-73
2022/09/25 04:21:25;;;;;;;10.68;5.95;;;4.70;99.90;;;4.76;100.00;98926.22;5062282;27;120243;-75
2022/09/25 04:26:41;;;;;;;9.00;5.28;;;4.80;99.90;;;4.86;100.00;98910.75;5063421;27;129374;-74
2022/09/25 04:29:10;;;;;;;9.23;5.50;;;4.70;99.90;;;4.83;100.00;98922.09;5028620;27;122066;-75
2022/09/25 04:31:38;;;;;;;8.27;5.78;;;4.70;99.90;;;4.79;100.00;98925.63;5061610;27;121734;-75
2022/09/25 04:34:06;;;;;;;9.13;5.57;;;4.70;99.90;;;4.74;100.00;98918.44;5061162;27;130162;-74
2022/09/25 04:36:34;;;;;;;8.40;5.30;;;4.70;99.90;;;4.74;100.00;98918.44;5061106;27;129703;-75
2022/09/25 04:39:04;;;;;;;11.55;5.05;;;4.60;99.90;;;4.74;100.00;98912.25;5061698;27;119625;-76
2022/09/25 04:41:33;;;;;;;7.53;4.70;;;4.70;99.90;;;4.73;100.00;98916.03;5046422;27;119167;-74
2022/09/25 04:44:05;;;;;;;9.65;5.55;;;4.60;99.90;;;4.76;100.00;98915.47;5061285;27;130376;-76
2022/09/25 04:46:34;;;;;;;8.52;5.57;;;4.60;99.90;;;4.78;100.00;98919.44;5061628;27;129673;-74
2022/09/25 04:49:02;;;;;;;7.93;4.50;;;4.70;99.90;;;4.95;100.00;98929.72;5061762;27;120028;-75
2022/09/25 04:51:32;;;;;;;9.02;5.88;;;4.80;99.90;;;4.93;100.00;98925.75;5062046;27;119295;-73
2022/09/25 04:54:00;;;;;;;7.78;5.05;;;4.80;99.90;;;4.91;100.00;98917.97;5061745;27;129270;-75
2022/09/25 04:56:30;;;;;;;9.20;4.93;;;4.70;99.90;;;4.84;100.00;98917.50;5061261;27;130542;-74
2022/09/25 04:58:58;;;;;;;9.18;5.60;;;4.70;99.90;;;4.66;100.00;98927.94;5061473;27;119320;-75
2022/09/25 05:01:27;;;;;;;8.85;5.43;;;4.60;99.90;;;4.65;100.00;98920.94;5043178;27;120114;-73
2022/09/25 05:03:55;;;;;;;9.70;6.15;;;4.50;99.90;;;4.67;100.00;98918.78;5063184;27;129893;-72
2022/09/25 05:06:25;;;;;;;8.82;5.28;;;4.50;99.90;;;4.74;100.00;98912.25;5062791;27;129671;-75
2022/09/25 05:08:56;;;;;;;10.07;5.65;;;4.50;99.90;;;4.85;100.00;98919.91;5061473;27;120552;-73
2022/09/25 05:11:24;;;;;;;8.48;5.15;;;4.60;99.90;;;4.99;100.00;98914.63;5062047;27;120130;-74
2022/09/25 05:13:55;;;;;;;9.18;5.93;;;4.60;99.90;;;5.11;100.00;98921.47;5060797;27;131506;-74
2022/09/25 05:16:23;;;;;;;9.32;5.75;;;4.60;99.90;;;5.25;100.00;98921.56;5060866;27;130219;-73
2022/09/25 05:18:52;;;;;;;8.80;5.63;;;4.70;99.90;;;5.38;100.00;98928.91;5059783;27;122126;-73
2022/09/25 05:21:20;;;;;;;9.93;5.97;;;4.90;99.90;;;5.53;100.00;98923.31;5061110;27;123069;-75
2022/09/25 05:23:50;;;;;;;8.45;5.43;;;5.00;99.90;;;5.60;100.00;98917.56;5055740;27;130070;-73
2022/09/25 05:26:22;;;;;;;19.77;13.38;;;5.10;99.90;;;5.71;100.00;98913.59;5056551;27;129564;-73
2022/09/25 05:28:51;;;;;;;13.20;6.93;;;5.20;99.90;;;5.82;100.00;98916.94;5059081;27;119671;-77
2022/09/25 05:31:21;;;;;;;9.65;5.15;;;5.40;99.90;;;6.02;100.00;98921.22;5042556;27;119144;-74
2022/09/25 05:33:50;;;;;;;7.15;4.47;;;5.50;99.90;;;6.18;100.00;98927.13;5073869;27;130224;-75
2022/09/25 05:36:18;;;;;;;10.35;4.40;;;5.60;99.90;;;6.28;100.00;98934.28;5069898;27;129718;-76
2022/09/25 05:38:47;;;;;;;7.43;4.75;;;5.60;99.90;;;6.30;100.00;98934.75;5058492;27;120269;-75
2022/09/25 05:41:16;;;;;;;6.75;4.47;;;5.80;99.90;;;6.41;100.00;98930.78;5059209;27;119707;-76
2022/09/25 05:43:46;;;;;;;5.70;4.10;;;5.90;99.90;;;6.53;100.00;98932.19;5057950;27;129986;-76
2022/09/25 05:46:15;;;;;;;8.15;5.85;;;5.90;99.90;;;6.66;100.00;98931.41;5059014;27;129958;-74
2022/09/25 05:48:45;;;;;;;8.82;5.22;;;6.00;99.90;;;6.78;100.00;98937.09;5059386;27;119891;-74
2022/09/25 05:51:14;;;;;;;8.10;4.90;;;6.20;99.90;;;6.91;100.00;98942.78;5059816;27;119906;-74
2022/09/25 05:53:43;;;;;;;7.80;5.18;;;6.30;99.90;;;7.03;100.00;98935.00;5040628;27;129943;-75
2022/09/25 05:56:11;;;;;;;7.70;5.25;;;6.30;99.90;;;7.18;100.00;98942.78;5044300;27;128750;-74
2022/09/25 05:58:40;;;;;;;9.27;4.43;;;6.40;99.90;;;7.16;100.00;98950.34;5059130;27;119817;-73
2022/09/25 06:01:09;;;;;;;9.80;5.63;;;6.50;99.90;;;7.27;100.00;98936.66;5043334;27;118553;-75
2022/09/25 06:03:38;;;;;;;11.57;7.88;;;6.60;99.90;;;7.31;100.00;98946.53;5040966;27;130307;-76
2022/09/25 06:06:08;;;;;;;16.13;13.65;;;6.70;99.90;;;7.39;100.00;98942.34;5021471;27;129801;-75
2022/09/25 06:08:37;;;;;;;7.97;4.55;;;6.80;99.90;;;7.50;100.00;98945.59;5038301;27;122514;-76
2022/09/25 06:11:07;;;;;;;11.27;4.97;;;6.90;99.90;;;7.63;100.00;98947.44;5040008;27;121835;-75
2022/09/25 06:13:35;;;;;;;7.47;4.03;;;6.90;99.90;;;7.78;100.00;98951.72;5039376;27;129724;-75
2022/09/25 06:16:05;;;;;;;9.05;4.63;;;6.90;99.90;;;7.90;100.00;98951.19;5040446;27;129564;-74
2022/09/25 06:18:33;;;;;;;6.13;3.97;;;7.10;99.90;;;7.98;100.00;98949.63;5026113;27;119476;-76
2022/09/25 06:21:05;;;;;;;9.10;4.00;;;7.10;99.90;;;7.98;100.00;98958.53;5041680;27;119622;-76
2022/09/25 06:23:35;;;;;;;6.50;3.47;;;7.20;99.90;;;8.00;100.00;98958.22;5057813;27;129757;-73
2022/09/25 06:26:08;;;;;;;8.32;3.90;;;7.30;99.90;;;8.17;100.00;98955.63;5037639;27;129143;-73
2022/09/25 06:28:37;;;;;;;7.75;3.85;;;7.40;99.90;;;8.28;100.00;98951.56;5050438;27;119452;-73
2022/09/25 06:31:06;;;;;;;10.10;6.28;;;7.60;99.90;;;8.46;100.00;98957.09;5039487;27;121144;-74
2022/09/25 06:33:35;;;;;;;15.82;5.50;;;7.60;99.90;;;8.52;100.00;98950.44;5041656;27;130157;-75
2022/09/25 06:36:06;;;;;;;8.20;5.43;;;7.60;99.90;;;8.60;100.00;98955.09;5058985;27;130284;-74
2022/09/25 06:38:36;;;;;;;9.63;4.30;;;7.60;99.90;;;8.62;100.00;98954.81;5061466;27;119199;-74
2022/09/25 06:41:05;;;;;;;9.68;4.55;;;7.60;99.90;;;8.73;100.00;98956.13;5059377;27;119658;-73
2022/09/25 06:43:33;;;;;;;7.15;3.95;;;7.90;99.90;;;8.89;99.38;98953.00;5043300;27;130648;-73
2022/09/25 06:46:02;;;;;;;6.47;3.30;;;7.90;96.30;;;8.84;99.51;98950.44;5039712;27;128806;-72
2022/09/25 06:48:31;;;;;;;5.50;3.60;;;7.90;96.60;;;8.93;99.04;98946.63;5041428;27;120213;-72
2022/09/25 06:51:01;;;;;;;8.13;3.70;;;7.90;96.20;;;8.95;98.27;98941.69;5042659;27;119869;-74
2022/09/25 06:53:30;;;;;;;16.48;7.38;;;8.10;88.60;;;9.17;97.51;98948.91;5056771;27;130025;-71
2022/09/25 06:56:01;;;;;;;6.78;3.33;;;8.20;88.70;;;9.29;94.03;98956.44;5045099;27;129617;-74
2022/09/25 06:58:30;;;;;;;5.78;3.13;;;8.10;69.70;;;9.22;94.59;98944.47;5063107;27;121508;-74
2022/09/25 07:00:59;;;;;;;5.82;3.42;;;8.00;88.50;;;9.31;95.02;98946.06;5043884;27;120811;-73
2022/09/25 07:03:45;;;;;;;6.32;3.47;;;8.20;72.80;;;9.26;93.71;98940.81;5062840;27;129758;-73
2022/09/25 07:06:17;;;;;;;7.88;3.53;;;8.00;73.90;;;9.30;95.83;98941.78;5032130;27;129314;-74
2022/09/25 07:08:46;;;;;;;5.40;3.50;;;8.30;78.70;;;9.40;94.51;98942.59;5044716;27;119659;-75
2022/09/25 07:11:19;;;;;;;6.20;4.25;;;8.30;65.10;;;9.49;94.62;98937.97;5036216;27;118965;-74
2022/09/25 07:13:53;;;;;;;5.85;3.50;;;8.50;68.10;;;9.74;92.93;98936.41;5046073;27;130393;-74
2022/09/25 07:16:24;;;;;;;5.28;3.58;;;8.50;59.00;;;9.85;90.93;98955.84;5066156;27;130562;-77
2022/09/25 07:18:54;;;;;;;5.90;3.67;;;8.50;50.60;;;9.83;90.76;98950.75;5065270;27;118480;-74
2022/09/25 07:21:26;;;;;;;5.53;3.10;;;8.50;52.10;;;9.82;90.86;98956.47;5063561;27;119487;-74
2022/09/25 07:23:57;;;;;;;5.95;2.88;;;8.60;43.50;;;9.79;91.16;98957.91;5042317;27;130113;-73
2022/09/25 07:26:32;;;;;;;5.53;3.17;;;8.60;44.70;;;9.84;91.97;98960.44;5054453;27;130033;-74
2022/09/25 07:29:05;;;;;;;5.93;3.50;;;8.60;58.60;;;9.86;93.14;98947.41;5051204;27;120378;-73
2022/09/25 07:31:36;;;;;;;8.60;3.83;;;8.80;53.40;;;10.10;93.11;98939.84;5029245;27;119278;-74
2022/09/25 07:34:07;;;;;;;7.05;3.40;;;9.00;56.80;;;10.29;91.81;98943.00;5009290;27;128779;-74
2022/09/25 07:36:37;;;;;;;13.25;3.88;;;9.30;39.40;;;10.46;90.93;98946.84;5053257;27;129685;-73
2022/09/25 07:39:06;;;;;;;8.98;3.97;;;9.30;29.40;;;10.76;90.04;98940.31;5051200;27;120291;-74
2022/09/25 07:41:38;;;;;;;4.97;2.90;;;9.60;30.00;;;10.61;86.49;98949.81;5061369;27;119922;-75
2022/09/25 07:44:06;;;;;;;7.47;4.90;;;9.10;23.00;;;10.33;88.63;98954.84;5061399;27;129870;-72
2022/09/25 07:46:35;;;;;;;9.02;6.10;;;8.90;40.30;;;10.21;89.87;98957.38;5059681;27;130771;-72
2022/09/25 07:49:04;;;;;;;5.07;3.17;;;8.90;44.70;;;10.19;90.15;98955.00;5057627;27;122349;-75
2022/09/25 07:51:33;;;;;;;6.05;3.22;;;9.10;30.00;;;10.34;89.74;98951.00;5052275;27;121713;-74
2022/09/25 07:54:03;;;;;;;8.93;4.20;;;9.20;27.70;;;10.53;89.69;98953.34;5057253;27;130124;-74
2022/09/25 07:56:33;;;;;;;7.22;4.35;;;9.40;29.10;;;10.60;89.81;98952.84;5046527;27;129292;-76
2022/09/25 07:59:03;;;;;;;7.22;4.57;;;9.40;28.40;;;10.71;89.26;98950.56;5061697;27;119993;-72
2022/09/25 08:01:31;;;;;;;6.60;3.50;;;9.40;36.40;;;10.78;89.18;98959.81;5057944;27;120316;-74
2022/09/25 08:04:01;;;;;;;5.63;3.67;;;9.50;25.10;;;10.84;87.94;98957.69;5033224;27;128850;-73
2022/09/25 08:06:30;;;;;;;5.15;3.33;;;9.30;31.20;;;10.61;88.84;98954.41;5062219;27;129876;-73
2022/09/25 08:08:59;;;;;;;5.78;4.00;;;9.20;33.40;;;10.64;89.78;98958.41;5043189;27;119491;-76
2022/09/25 08:11:28;;;;;;;7.70;3.70;;;9.40;29.30;;;10.55;89.09;98958.44;5028728;27;119962;-74
2022/09/25 08:13:57;;;;;;;8.60;3.88;;;9.30;32.20;;;10.58;88.60;98960.50;5049873;27;130045;-77
2022/09/25 08:16:27;;;;;;;6.85;3.60;;;9.10;35.30;;;10.50;90.13;98958.63;5060359;27;130210;-68
2022/09/25 08:18:56;;;;;;;6.70;3.65;;;9.40;33.30;;;10.57;90.18;98958.91;5045980;27;119588;-77
2022/09/25 08:21:25;;;;;;;7.82;4.43;;;9.40;29.20;;;10.81;89.58;98965.69;5041987;27;119097;-78
2022/09/25 08:23:55;;;;;;;6.43;3.80;;;9.60;27.20;;;10.94;88.91;98967.41;5055579;27;130240;-78
2022/09/25 08:26:25;;;;;;;6.88;3.80;;;9.80;20.80;;;11.02;89.08;98969.28;5060226;27;129877;-74
2022/09/25 08:28:53;;;;;;;8.57;3.67;;;10.00;16.20;;;11.08;87.78;98962.53;5060518;27;120862;-75
2022/09/25 08:31:23;;;;;;;6.40;4.05;;;9.60;24.50;;;11.00;88.29;98955.25;5051275;27;119444;-73
2022/09/25 08:33:54;;;;;;;5.80;3.55;;;9.60;28.50;;;11.08;87.70;98961.72;5039650;27;130357;-76
2022/09/25 08:36:23;;;;;;;5.88;3.50;;;9.70;26.40;;;11.25;88.09;98952.69;5039063;27;129503;-75
2022/09/25 08:38:58;;;;;;;5.97;3.45;;;9.90;21.50;;;11.24;85.89;98956.53;5058285;27;122552;-75
2022/09/25 08:41:32;;;;;;;7.28;4.20;;;9.90;10.60;;;11.21;86.12;98946.34;5043754;27;121529;-78
2022/09/25 08:44:04;;;;;;;6.45;3.88;;;9.70;21.30;;;11.37;85.79;98957.41;5060272;27;129816;-77
2022/09/25 08:49:34;;;;;;;7.53;3.95;;;9.70;15.50;;;11.37;87.64;98946.53;5041237;27;119303;-75
2022/09/25 08:52:06;;;;;;;6.25;3.67;;;10.00;23.00;;;11.49;85.57;98941.97;5047729;27;119073;-74
2022/09/25 08:54:36;;;;;;;5.63;3.35;;;10.10;8.50;;;11.79;85.18;98947.31;5035927;27;129396;-76
2022/09/25 08:57:16;;;;;;;6.80;3.38;;;10.40;6.90;;;11.84;84.03;98949.88;5042489;27;129464;-76
2022/09/25 08:59:54;;;;;;;8.57;4.20;;;10.40;4.40;;;11.82;82.35;98951.31;5026339;27;119082;-75
2022/09/25 09:02:27;;;;;;;5.32;3.30;;;10.30;1.00;;;11.94;81.41;98947.91;5027382;27;118580;-76
2022/09/25 09:05:00;;;;;;;5.90;3.40;;;10.50;1.00;;;11.78;81.90;98948.47;5057253;27;130516;-76
2022/09/25 09:07:37;;;;;;;5.95;3.83;;;10.30;1.00;;;11.97;81.82;98937.13;5037588;27;128820;-76
2022/09/25 09:10:19;;;;;;;6.93;3.83;;;10.30;1.00;;;12.18;79.69;98942.53;5057355;27;119543;-77
2022/09/25 09:12:54;;;;;;;6.28;3.22;;;10.50;1.00;;;12.36;79.29;98945.06;5023729;27;102984;-73
2022/09/25 09:15:34;;;;;;;5.32;3.35;;;10.50;1.00;;;12.55;80.68;98945.31;5064446;27;131058;-73
2022/09/25 09:18:19;;;;;;;6.85;3.70;;;11.00;1.00;;;12.82;78.18;98945.81;5063899;27;129422;-74
2022/09/25 09:20:54;;;;;;;6.30;3.15;;;11.30;1.00;;;13.00;77.93;98937.44;5061586;27;119838;-75
2022/09/25 09:23:24;;;;;;;8.23;3.78;;;11.20;1.00;;;13.26;76.53;98940.56;5043396;27;119726;-75
2022/09/25 09:26:02;;;;;;;6.32;3.70;;;11.20;1.00;;;13.30;75.58;98933.28;5058865;27;131447;-73
2022/09/25 09:29:03;;;;;;;5.45;3.50;;;11.10;1.00;;;13.00;75.83;98932.75;5060980;27;129646;-73
2022/09/25 09:31:43;;;;;;;6.55;3.60;;;10.90;1.00;;;13.18;75.65;98925.13;5044017;27;121759;-76
2022/09/25 09:34:44;;;;;;;6.80;3.70;;;11.20;1.00;;;13.43;75.04;98930.56;5059178;27;121874;-74
2022/09/25 09:37:23;;;;;;;5.32;3.40;;;11.40;1.00;;;13.55;72.82;98925.09;5042458;27;130202;-74
2022/09/25 09:40:08;;;;;;;5.60;3.78;;;11.40;1.00;;;13.44;73.85;98930.22;5059766;27;129911;-70
2022/09/25 09:42:46;;;;;;;7.15;3.72;;;11.50;1.00;;;13.65;73.49;98924.63;5044878;27;119285;-70
2022/09/25 09:45:23;;;;;;;6.47;4.10;;;11.70;1.00;;;13.52;73.03;98914.88;5060332;27;119447;-73
2022/09/25 09:47:56;;;;;;;;;;;11.90;1.00;;;13.41;74.15;98908.31;5056823;27;129660;-74
2022/09/25 09:50:42;;;;;;;6.80;3.70;;;12.00;1.00;;;13.68;72.03;98906.78;5061750;27;129761;-77
2022/09/25 09:53:27;;;;;;;7.60;3.50;;;12.10;1.00;;;13.77;72.61;98903.88;5040148;27;120016;-73
2022/09/25 09:56:01;;;;;;;6.75;3.60;;;12.10;1.00;;;13.75;70.00;98900.72;5040354;27;120185;-70
2022/09/25 09:58:40;;;;;;;5.80;3.50;;;12.10;1.00;;;13.78;68.05;98900.03;5038786;27;129828;-75
2022/09/25 10:01:10;;;;;;;7.82;3.95;;;11.80;1.00;;;13.65;69.70;98897.34;5022923;27;129793;-70
2022/09/25 10:03:41;;;;;;;6.95;3.80;;;11.90;1.00;;;13.98;67.58;98896.28;5038448;27;120507;-70
2022/09/25 10:06:14;;;;;;;6.40;3.70;;;12.10;1.00;;;14.31;67.96;98895.19;5019802;28;119223;-71
2022/09/25 10:08:44;;;;;;;6.30;3.70;;;12.30;1.00;;;14.87;67.69;98888.00;5019557;28;130067;-72
2022/09/25 10:11:17;;;;;;;5.28;3.33;;;13.30;1.00;;;14.93;64.52;98897.50;5019662;28;129351;-70
2022/09/25 10:13:47;;;;;;;5.70;3.10;;;13.50;1.00;;;14.80;66.23;98893.28;5017720;28;119789;-70
2022/09/25 10:16:19;;;;;;;7.25;4.00;;;13.20;1.00;;;14.49;66.45;98889.38;5017633;27;118523;-71
2022/09/25 10:18:55;;;;;;;6.20;4.15;;;12.80;1.00;;;14.30;68.95;98888.13;5017487;28;129037;-71
2022/09/25 10:21:25;;;;;;;;;;;12.70;1.00;;;14.19;68.17;98884.34;5016297;28;130140;-71
2022/09/25 10:23:57;;;;;;;6.25;3.63;;;12.60;1.00;;;14.50;69.38;98880.06;5014830;28;122179;-69
2022/09/25 10:26:29;;;;;;;7.70;3.55;;;12.80;1.00;;;14.45;66.05;98885.78;5016170;28;122637;-70
2022/09/25 10:28:59;;;;;;;6.97;3.80;;;12.70;1.00;;;14.36;66.44;98881.28;5017159;28;129868;-70
2022/09/25 10:31:32;;;;;;;6.88;3.85;;;12.30;1.00;;;14.29;66.61;98892.03;5019382;28;129597;-69
2022/09/25 10:34:16;;;;;;;5.78;3.38;;;12.40;1.00;;;14.73;66.65;98883.75;5021515;28;119542;-69
2022/09/25 10:36:50;;;;;;;7.65;3.83;;;13.00;1.00;;;14.99;64.89;98879.69;5019607;28;120042;-70
2022/09/25 10:39:29;;;;;;;7.05;3.53;;;13.20;1.00;;;14.79;63.74;98878.84;5021222;28;129245;-70
2022/09/25 10:42:00;;;;;;;6.90;3.80;;;13.10;1.00;;;14.83;64.55;98873.44;5020009;28;129821;-71
2022/09/25 10:44:33;;;;;;;6.68;3.40;;;12.60;1.00;;;14.89;62.96;98877.50;5019757;28;119565;-71
2022/09/25 10:50:21;;;;;;;5.57;3.10;;;12.60;1.00;;;14.62;64.52;98866.34;5017969;28;129941;-70
2022/09/25 10:52:54;;;;;;;6.22;3.63;;;13.00;1.00;;;14.78;63.62;98869.06;5021224;28;128795;-71
2022/09/25 10:55:28;;;;;;;5.65;3.00;;;13.10;1.00;;;14.92;63.58;98868.59;5019727;28;120223;-71
2022/09/25 10:58:08;;;;;;;7.75;3.47;;;13.10;1.00;;;15.10;60.93;98867.03;5019363;28;119490;-72